Time;durP1;ratioP1;P1;durP2;ratioP2;P2;SDS_P1;SDS_P2;PMS_P1;PMS_P2;Temp;Humidity;BMP_temperature;BMP_pressure;BME280_temperature;BME280_humidity;BME280_pressure;Samples;Min_cycle;Max_cycle;Signal;HPM_P1;HPM_P2
2022/03/31 00:00:43;;;;;;;3.17;1.30;;;-5.40;99.90;;;;;;4934482;29;20400;-84
2022/03/31 00:03:13;;;;;;;2.55;1.40;;;-5.30;99.90;;;;;;4934343;29;20414;-85
2022/03/31 00:05:41;;;;;;;2.45;1.23;;;-5.40;99.90;;;;;;4949191;29;20453;-83
2022/03/31 00:08:13;;;;;;;2.03;1.00;;;-5.30;99.90;;;;;;4934580;29;20405;-82
2022/03/31 00:10:46;;;;;;;2.38;1.00;;;-5.40;99.90;;;;;;4933374;29;20728;-83
2022/03/31 00:13:21;;;;;;;1.90;1.17;;;-5.40;99.90;;;;;;4936863;29;20402;-82
2022/03/31 00:15:48;;;;;;;2.67;1.23;;;-5.50;99.90;;;;;;4937330;29;20607;-83
2022/03/31 00:18:17;;;;;;;1.98;1.08;;;-5.60;99.90;;;;;;4937320;29;20923;-83
2022/03/31 00:20:46;;;;;;;1.50;1.00;;;-5.60;99.90;;;;;;4938293;29;20398;-83
2022/03/31 00:23:13;;;;;;;2.45;1.30;;;-5.60;99.90;;;;;;4952996;29;20900;-82
2022/03/31 00:25:42;;;;;;;3.05;1.33;;;-5.60;99.90;;;;;;4937078;29;20402;-83
2022/03/31 00:28:10;;;;;;;3.10;1.27;;;-5.60;99.90;;;;;;4937117;29;20497;-83
2022/03/31 00:30:38;;;;;;;2.45;1.13;;;-5.50;99.90;;;;;;4936974;29;20408;-83
2022/03/31 00:33:06;;;;;;;1.73;1.00;;;-5.60;99.90;;;;;;4936899;29;20769;-83
2022/03/31 00:35:34;;;;;;;2.55;1.20;;;-5.60;99.90;;;;;;4936988;29;20461;-84
2022/03/31 00:38:02;;;;;;;2.00;1.30;;;-5.60;99.90;;;;;;4937040;29;20477;-84
2022/03/31 00:40:31;;;;;;;3.40;1.00;;;-5.60;99.90;;;;;;4937036;29;20409;-85
2022/03/31 00:42:59;;;;;;;2.08;1.23;;;-5.60;99.90;;;;;;4936918;29;20908;-85
2022/03/31 00:45:32;;;;;;;2.93;1.27;;;-5.60;99.90;;;;;;4952669;29;20402;-83
2022/03/31 00:48:00;;;;;;;2.65;1.20;;;-5.60;99.90;;;;;;4938071;29;20545;-83
2022/03/31 00:50:28;;;;;;;2.27;1.20;;;-5.60;99.90;;;;;;4936785;29;20429;-85
2022/03/31 00:52:56;;;;;;;1.90;1.10;;;-5.60;99.90;;;;;;4938167;29;20424;-85
2022/03/31 00:55:47;;;;;;;2.97;1.08;;;-5.60;99.90;;;;;;4952461;29;20816;-85
2022/03/31 00:58:16;;;;;;;3.97;1.30;;;-5.70;99.90;;;;;;4937671;29;20394;-83
2022/03/31 01:00:44;;;;;;;2.22;1.25;;;-5.70;99.90;;;;;;4936610;29;20493;-83
2022/03/31 01:03:12;;;;;;;2.50;1.27;;;-5.80;99.90;;;;;;4952077;29;20413;-82
2022/03/31 01:05:40;;;;;;;3.47;1.10;;;-5.70;99.90;;;;;;4952177;29;20397;-83
2022/03/31 01:08:10;;;;;;;2.57;1.30;;;-5.80;99.90;;;;;;4937545;29;20402;-85
2022/03/31 01:10:38;;;;;;;2.90;1.40;;;-5.80;99.90;;;;;;4936389;29;20840;-86
2022/03/31 01:13:09;;;;;;;3.20;1.40;;;-5.70;99.90;;;;;;4920623;29;20829;-84
2022/03/31 01:15:37;;;;;;;2.30;1.10;;;-5.70;99.90;;;;;;4936277;29;20408;-83
2022/03/31 01:18:05;;;;;;;3.08;1.35;;;-5.80;99.90;;;;;;4937467;29;20401;-85
2022/03/31 01:20:34;;;;;;;2.53;1.42;;;-5.90;99.90;;;;;;4936200;29;20409;-86
2022/03/31 01:23:02;;;;;;;2.75;1.50;;;-5.90;99.90;;;;;;4936110;29;20552;-85
2022/03/31 01:25:30;;;;;;;2.27;1.20;;;-5.80;99.90;;;;;;4934987;29;20406;-85
2022/03/31 01:27:58;;;;;;;3.75;1.20;;;-5.80;99.90;;;;;;4951994;29;20484;-85
2022/03/31 01:30:26;;;;;;;2.95;1.40;;;-5.80;99.90;;;;;;4937330;29;20398;-84
2022/03/31 01:32:54;;;;;;;2.72;1.25;;;-5.90;99.90;;;;;;4937135;29;20441;-85
2022/03/31 01:35:23;;;;;;;1.98;1.10;;;-5.90;99.90;;;;;;4937088;29;20401;-83
2022/03/31 01:37:51;;;;;;;2.42;1.20;;;-5.90;99.90;;;;;;4951711;29;20481;-83
2022/03/31 01:40:19;;;;;;;2.85;1.02;;;-5.90;99.90;;;;;;4936004;29;20416;-83
2022/03/31 01:42:47;;;;;;;1.20;1.00;;;-5.90;99.90;;;;;;4935564;29;21066;-83
2022/03/31 01:45:17;;;;;;;2.33;1.10;;;-5.90;99.90;;;;;;4936996;29;20394;-83
2022/03/31 01:47:45;;;;;;;1.77;1.00;;;-6.00;99.90;;;;;;4920242;29;20402;-84
2022/03/31 01:50:14;;;;;;;1.75;1.00;;;-6.10;99.90;;;;;;4936858;29;20481;-83
2022/03/31 01:52:42;;;;;;;1.85;1.00;;;-6.10;99.90;;;;;;4936787;29;20397;-83
2022/03/31 01:55:09;;;;;;;1.73;1.08;;;-6.10;99.90;;;;;;4936816;29;20901;-84
2022/03/31 01:57:38;;;;;;;1.77;1.00;;;-6.20;99.90;;;;;;4919859;29;20454;-83
2022/03/31 02:00:07;;;;;;;4.70;1.20;;;-6.20;99.90;;;;;;4951195;29;20394;-86
2022/03/31 02:02:42;;;;;;;2.63;1.10;;;-6.20;99.90;;;;;;4938321;29;20909;-83
2022/03/31 02:05:11;;;;;;;2.20;1.08;;;-6.20;99.90;;;;;;4936278;29;20739;-85
2022/03/31 02:07:39;;;;;;;2.22;1.23;;;-6.30;99.90;;;;;;4935383;29;20772;-85
2022/03/31 02:10:11;;;;;;;3.47;0.93;;;-6.30;99.90;;;;;;4935491;29;20477;-85
2022/03/31 02:12:41;;;;;;;3.08;1.15;;;-6.30;99.90;;;;;;4935374;29;20394;-84
2022/03/31 02:15:12;;;;;;;2.47;1.10;;;-6.30;99.90;;;;;;4935438;29;20813;-84
2022/03/31 02:17:40;;;;;;;2.13;1.13;;;-6.30;99.90;;;;;;4951423;29;20920;-84
2022/03/31 02:20:09;;;;;;;2.80;1.20;;;-6.30;99.90;;;;;;4935117;29;20765;-83
2022/03/31 02:22:37;;;;;;;3.50;1.40;;;-6.30;99.90;;;;;;4936325;29;20421;-84
2022/03/31 02:25:09;;;;;;;1.58;1.08;;;-6.30;99.90;;;;;;4936309;29;20398;-84
2022/03/31 02:27:38;;;;;;;2.72;1.10;;;-6.30;99.90;;;;;;4951163;29;20977;-83
2022/03/31 02:30:07;;;;;;;2.25;1.05;;;-6.30;99.90;;;;;;4919313;29;20402;-84
2022/03/31 02:32:37;;;;;;;1.83;1.00;;;-6.30;99.90;;;;;;4919387;29;20927;-84
2022/03/31 02:35:06;;;;;;;1.55;1.10;;;-6.30;99.90;;;;;;4936024;29;20402;-84
2022/03/31 02:37:34;;;;;;;1.80;1.00;;;-6.30;99.90;;;;;;4935983;29;20481;-84
2022/03/31 02:40:04;;;;;;;2.97;1.20;;;-6.30;99.90;;;;;;4950621;29;20425;-84
2022/03/31 02:42:35;;;;;;;2.10;1.00;;;-6.30;99.90;;;;;;4934427;29;20501;-85
2022/03/31 02:45:06;;;;;;;1.85;0.98;;;-6.30;99.90;;;;;;4936044;29;20481;-85
2022/03/31 02:47:35;;;;;;;1.77;1.20;;;-6.40;99.90;;;;;;4935950;29;20421;-84
2022/03/31 02:50:07;;;;;;;2.13;1.08;;;-6.40;99.90;;;;;;4919080;29;20404;-84
2022/03/31 02:55:28;;;;;;;2.00;1.07;;;-6.50;99.90;;;;;;4935872;29;20876;-84
2022/03/31 02:58:01;;;;;;;2.78;1.00;;;-6.50;99.90;;;;;;4935745;29;20397;-84
2022/03/31 03:00:33;;;;;;;2.38;1.10;;;-6.50;99.90;;;;;;4934595;29;20445;-85
2022/03/31 03:03:03;;;;;;;1.70;1.10;;;-6.50;99.90;;;;;;4934192;29;20445;-84
2022/03/31 03:05:32;;;;;;;3.10;1.20;;;-6.50;99.90;;;;;;4935533;29;20460;-84
2022/03/31 03:08:00;;;;;;;2.08;1.00;;;-6.50;99.90;;;;;;4930900;29;20412;-84
2022/03/31 03:10:28;;;;;;;2.50;1.40;;;-6.40;99.90;;;;;;4934252;29;20422;-84
2022/03/31 03:12:57;;;;;;;2.47;1.10;;;-6.50;99.90;;;;;;4934221;29;20493;-86
2022/03/31 03:15:25;;;;;;;3.30;1.27;;;-6.40;99.90;;;;;;4935508;29;20492;-85
2022/03/31 03:17:53;;;;;;;2.10;1.00;;;-6.40;99.90;;;;;;4934059;29;20904;-84
2022/03/31 03:20:24;;;;;;;2.58;1.20;;;-6.50;99.90;;;;;;4934245;29;20402;-83
2022/03/31 03:22:54;;;;;;;1.67;1.08;;;-6.50;99.90;;;;;;4934071;29;20466;-83
2022/03/31 03:25:23;;;;;;;1.90;1.10;;;-6.50;99.90;;;;;;4933999;29;20406;-84
2022/03/31 03:27:51;;;;;;;2.17;1.10;;;-6.50;99.90;;;;;;4935215;29;20611;-85
2022/03/31 03:30:20;;;;;;;2.05;1.08;;;-6.60;99.90;;;;;;4935146;29;20449;-85
2022/03/31 03:32:48;;;;;;;1.63;1.00;;;-6.60;99.90;;;;;;4933852;29;20398;-85
2022/03/31 03:35:16;;;;;;;2.50;0.95;;;-6.60;99.90;;;;;;4935026;29;20398;-84
2022/03/31 03:37:44;;;;;;;2.72;1.10;;;-6.60;99.90;;;;;;4932758;29;20432;-84
2022/03/31 03:40:14;;;;;;;1.95;0.98;;;-6.60;99.90;;;;;;4949207;29;20406;-83
2022/03/31 03:42:42;;;;;;;1.47;0.83;;;-6.60;99.90;;;;;;4934869;29;20469;-86
2022/03/31 03:45:13;;;;;;;2.97;1.02;;;-6.70;99.90;;;;;;4918455;29;20406;-84
2022/03/31 03:47:41;;;;;;;4.60;1.10;;;-6.70;99.90;;;;;;4934286;29;20450;-84
2022/03/31 03:50:10;;;;;;;2.53;0.95;;;-6.70;99.90;;;;;;4917932;29;20485;-84
2022/03/31 03:52:39;;;;;;;3.20;1.10;;;-6.70;99.90;;;;;;4930333;29;20399;-83
2022/03/31 03:55:08;;;;;;;2.08;1.00;;;-6.70;99.90;;;;;;4925331;29;20422;-83
2022/03/31 03:57:36;;;;;;;3.47;1.10;;;-6.70;99.90;;;;;;4917832;29;20817;-84
2022/03/31 04:00:04;;;;;;;1.60;0.95;;;-6.70;99.90;;;;;;4933585;29;20426;-84
2022/03/31 04:02:32;;;;;;;2.17;1.00;;;-6.60;99.90;;;;;;4934118;29;20493;-84
2022/03/31 04:04:59;;;;;;;1.90;1.10;;;-6.70;99.90;;;;;;4933547;29;20796;-84
2022/03/31 04:07:28;;;;;;;2.20;1.02;;;-6.70;99.90;;;;;;4933597;29;20888;-84
2022/03/31 04:09:56;;;;;;;2.88;1.13;;;-6.70;99.90;;;;;;4933314;29;20912;-84
2022/03/31 04:12:24;;;;;;;2.05;1.20;;;-6.70;99.90;;;;;;4933451;29;20453;-84
2022/03/31 04:14:51;;;;;;;2.45;0.95;;;-6.70;99.90;;;;;;4916492;29;20485;-84
2022/03/31 04:17:19;;;;;;;2.67;1.20;;;-6.70;99.90;;;;;;4917338;29;20757;-84
2022/03/31 04:19:47;;;;;;;2.60;1.30;;;-6.60;99.90;;;;;;4949295;29;20413;-84
2022/03/31 04:22:14;;;;;;;1.92;1.20;;;-6.70;99.90;;;;;;4934594;29;20426;-84
2022/03/31 04:24:42;;;;;;;2.43;1.33;;;-6.60;99.90;;;;;;4933418;29;20760;-84
2022/03/31 04:27:10;;;;;;;2.90;1.10;;;-6.60;99.90;;;;;;4934815;29;20478;-84
2022/03/31 04:29:37;;;;;;;2.90;1.10;;;-6.60;99.90;;;;;;4934376;29;20404;-83
2022/03/31 04:32:05;;;;;;;2.47;1.20;;;-6.70;99.90;;;;;;4933361;29;20398;-83
2022/03/31 04:34:34;;;;;;;1.58;1.00;;;-6.60;99.90;;;;;;4948929;29;20402;-84
2022/03/31 04:37:02;;;;;;;3.47;1.45;;;-6.60;99.90;;;;;;4931298;29;20427;-84
2022/03/31 04:39:30;;;;;;;2.72;1.30;;;-6.60;99.90;;;;;;4949078;29;20397;-83
2022/03/31 04:41:57;;;;;;;2.00;1.20;;;-6.60;99.90;;;;;;4949202;29;20940;-84
2022/03/31 04:44:25;;;;;;;3.15;1.42;;;-6.70;99.90;;;;;;4933104;29;20441;-84
2022/03/31 04:46:53;;;;;;;2.95;1.40;;;-6.70;99.90;;;;;;4933131;29;20410;-84
2022/03/31 04:49:21;;;;;;;26.00;3.38;;;-6.70;99.90;;;;;;4948937;29;20492;-83
2022/03/31 04:51:49;;;;;;;3.92;1.27;;;-6.70;99.90;;;;;;4933090;29;20394;-83
2022/03/31 04:54:16;;;;;;;2.95;1.60;;;-6.60;99.90;;;;;;4932935;29;20956;-83
2022/03/31 04:56:44;;;;;;;3.35;1.35;;;-6.60;99.90;;;;;;4932857;29;20398;-82
2022/03/31 04:59:12;;;;;;;3.90;1.30;;;-6.50;99.90;;;;;;4934931;29;20406;-82
2022/03/31 05:01:40;;;;;;;3.95;1.80;;;-6.50;99.90;;;;;;4936428;29;20479;-83
2022/03/31 05:04:09;;;;;;;3.08;1.30;;;-6.50;99.90;;;;;;4936416;29;20774;-84
2022/03/31 05:06:37;;;;;;;3.15;1.50;;;-6.50;99.90;;;;;;4936930;29;20402;-83
2022/03/31 05:09:04;;;;;;;3.08;1.60;;;-6.50;99.90;;;;;;4952082;29;20400;-83
2022/03/31 05:11:32;;;;;;;3.17;1.80;;;-6.50;99.90;;;;;;4930552;29;20486;-83
2022/03/31 05:13:59;;;;;;;3.47;1.70;;;-6.40;99.90;;;;;;4928185;29;20426;-83
2022/03/31 05:16:27;;;;;;;3.63;1.53;;;-6.40;99.90;;;;;;4923861;29;20498;-84
2022/03/31 05:18:55;;;;;;;2.67;1.52;;;-6.40;99.90;;;;;;4923022;29;20670;-84
2022/03/31 05:21:22;;;;;;;2.42;1.35;;;-6.30;99.90;;;;;;4917863;29;20399;-85
2022/03/31 05:23:50;;;;;;;3.80;1.60;;;-6.30;99.90;;;;;;4920272;29;20421;-82
2022/03/31 05:26:18;;;;;;;2.40;1.52;;;-6.40;99.90;;;;;;4935975;29;20405;-83
2022/03/31 05:28:45;;;;;;;4.13;1.42;;;-6.30;99.90;;;;;;4935818;29;20738;-82
2022/03/31 05:31:14;;;;;;;3.05;1.45;;;-6.30;99.90;;;;;;4927872;29;20395;-82
2022/03/31 05:33:41;;;;;;;3.13;1.40;;;-6.40;99.90;;;;;;4919531;29;20417;-84
2022/03/31 05:36:09;;;;;;;2.70;1.52;;;-6.50;99.90;;;;;;4935910;29;20461;-85
2022/03/31 05:38:37;;;;;;;3.00;1.40;;;-6.50;99.90;;;;;;4920159;29;20428;-83
2022/03/31 05:41:05;;;;;;;2.60;1.25;;;-6.50;99.90;;;;;;4937005;29;20493;-85
2022/03/31 05:43:32;;;;;;;2.65;1.38;;;-6.50;99.90;;;;;;4935611;29;20406;-85
2022/03/31 05:46:00;;;;;;;2.45;1.48;;;-6.40;99.90;;;;;;4936972;29;20469;-82
2022/03/31 05:48:28;;;;;;;2.88;1.50;;;-6.30;99.90;;;;;;4938881;29;20395;-82
2022/03/31 05:50:56;;;;;;;2.58;1.50;;;-6.30;99.90;;;;;;4916354;29;20404;-82
2022/03/31 05:53:23;;;;;;;2.95;1.40;;;-6.20;99.90;;;;;;4916558;29;20399;-82
2022/03/31 05:55:52;;;;;;;4.15;1.98;;;-6.20;99.90;;;;;;4917554;29;20403;-85
2022/03/31 05:58:19;;;;;;;3.00;1.15;;;-6.00;99.90;;;;;;4917641;29;20472;-82
2022/03/31 06:00:47;;;;;;;2.42;1.30;;;-5.90;99.90;;;;;;4916412;29;20407;-82
2022/03/31 06:03:18;;;;;;;4.32;1.83;;;-5.90;99.90;;;;;;4917426;29;20420;-83
2022/03/31 06:05:45;;;;;;;3.35;1.60;;;-5.80;99.90;;;;;;4916173;29;20403;-82
2022/03/31 06:08:13;;;;;;;2.30;1.40;;;-5.70;99.90;;;;;;4917479;29;20395;-83
2022/03/31 06:10:42;;;;;;;3.25;1.60;;;-5.60;99.90;;;;;;4915734;29;20438;-84
2022/03/31 06:13:11;;;;;;;3.90;1.70;;;-5.30;99.90;;;;;;4932073;29;20400;-82
2022/03/31 06:15:39;;;;;;;4.10;1.65;;;-5.10;99.90;;;;;;4917251;29;20490;-82
2022/03/31 06:18:07;;;;;;;4.65;1.73;;;-5.00;99.90;;;;;;4927581;29;20406;-82
2022/03/31 06:20:36;;;;;;;4.25;1.50;;;-5.00;99.90;;;;;;4919087;29;20402;-82
2022/03/31 06:23:04;;;;;;;2.20;1.20;;;-4.80;99.90;;;;;;4934767;29;20501;-83
2022/03/31 06:25:31;;;;;;;2.65;1.50;;;-4.70;99.90;;;;;;4950774;29;20413;-83
2022/03/31 06:27:59;;;;;;;3.67;1.40;;;-4.80;99.90;;;;;;4950750;29;20406;-82
2022/03/31 06:30:27;;;;;;;3.10;1.63;;;-4.90;99.90;;;;;;4936125;29;20398;-83
2022/03/31 06:32:54;;;;;;;2.60;1.25;;;-4.90;99.90;;;;;;4935899;29;20390;-83
2022/03/31 06:35:23;;;;;;;2.42;1.38;;;-4.80;99.90;;;;;;4933912;29;20409;-83
2022/03/31 06:37:50;;;;;;;4.25;1.35;;;-4.80;99.90;;;;;;4931371;29;20404;-83
2022/03/31 06:40:19;;;;;;;2.97;1.40;;;-4.80;99.90;;;;;;4932389;29;20445;-83
2022/03/31 06:42:47;;;;;;;2.35;1.15;;;-4.80;99.90;;;;;;4934687;29;20402;-83
2022/03/31 06:45:19;;;;;;;3.50;1.40;;;-4.50;99.90;;;;;;4933471;29;20421;-83
2022/03/31 06:47:56;;;;;;;2.47;1.27;;;-4.50;99.90;;;;;;4942830;29;20470;-83
2022/03/31 06:50:30;;;;;;;2.78;1.10;;;-4.50;99.90;;;;;;4935196;29;20390;-82
2022/03/31 06:52:58;;;;;;;2.92;1.20;;;-4.30;99.90;;;;;;4940325;29;20395;-81
2022/03/31 06:55:28;;;;;;;2.35;1.20;;;-4.30;99.90;;;;;;4929034;29;20412;-82
2022/03/31 06:57:56;;;;;;;1.77;1.10;;;-4.00;99.90;;;;;;4934228;29;20394;-82
2022/03/31 07:00:24;;;;;;;3.00;1.20;;;-4.10;99.90;;;;;;4935277;29;20429;-82
2022/03/31 07:02:52;;;;;;;2.58;1.10;;;-4.20;99.90;;;;;;4933828;29;20552;-82
2022/03/31 07:05:20;;;;;;;3.45;1.30;;;-4.10;99.90;;;;;;4934891;29;20429;-82
2022/03/31 07:07:47;;;;;;;2.10;1.02;;;-3.70;99.90;;;;;;4932740;29;20405;-82
2022/03/31 07:10:15;;;;;;;2.13;1.15;;;-3.80;99.90;;;;;;4935096;29;20398;-82
2022/03/31 07:12:43;;;;;;;2.38;1.13;;;-3.80;99.90;;;;;;4917339;29;20923;-82
2022/03/31 07:15:11;;;;;;;2.45;0.90;;;-3.60;99.90;;;;;;4933537;29;20907;-83
2022/03/31 07:17:38;;;;;;;2.15;1.17;;;-3.60;99.90;;;;;;4933087;29;20500;-84
2022/03/31 07:20:07;;;;;;;1.87;0.90;;;-3.40;99.90;;;;;;4934261;29;20877;-82
2022/03/31 07:22:42;;;;;;;2.72;1.27;;;-3.30;99.90;;;;;;4932142;29;20433;-83
2022/03/31 07:25:09;;;;;;;2.70;1.00;;;-3.20;99.90;;;;;;4932956;29;20414;-83
2022/03/31 07:27:37;;;;;;;2.87;0.80;;;-3.20;99.90;;;;;;4949481;29;20493;-83
2022/03/31 07:30:11;;;;;;;2.53;0.80;;;-3.20;99.90;;;;;;4948093;29;20489;-83
2022/03/31 07:33:00;;;;;;;1.90;0.80;;;-3.10;99.90;;;;;;4934799;29;20404;-83
2022/03/31 07:35:30;;;;;;;1.70;0.70;;;-3.20;99.90;;;;;;4935137;29;20808;-83
2022/03/31 07:37:59;;;;;;;1.42;0.70;;;-3.30;99.90;;;;;;4949580;29;20734;-83
2022/03/31 07:40:27;;;;;;;1.30;0.80;;;-3.10;99.90;;;;;;4934878;29;20394;-83
2022/03/31 07:42:55;;;;;;;1.80;0.80;;;-3.00;99.90;;;;;;4935125;29;20398;-82
2022/03/31 07:45:24;;;;;;;1.33;0.63;;;-3.00;99.90;;;;;;4949430;29;20448;-81
2022/03/31 07:47:51;;;;;;;1.80;0.80;;;-2.90;99.90;;;;;;4933470;29;20390;-81
2022/03/31 07:50:21;;;;;;;0.98;0.63;;;-3.00;99.90;;;;;;4934655;29;20485;-82
2022/03/31 07:52:49;;;;;;;1.80;0.70;;;-3.10;99.90;;;;;;4934586;29;20523;-82
2022/03/31 07:55:19;;;;;;;1.65;0.80;;;-3.30;99.90;;;;;;4934590;29;20426;-82
2022/03/31 07:57:48;;;;;;;1.70;0.70;;;-3.20;99.90;;;;;;4934596;29;20402;-82
2022/03/31 08:00:17;;;;;;;2.37;0.70;;;-3.10;99.90;;;;;;4934683;29;20402;-82
2022/03/31 08:02:49;;;;;;;1.55;0.82;;;-3.10;99.90;;;;;;4934289;29;20417;-82
2022/03/31 08:05:20;;;;;;;1.65;0.70;;;-3.10;99.90;;;;;;4949091;29;20414;-82
2022/03/31 08:07:48;;;;;;;1.40;0.70;;;-3.10;99.90;;;;;;4949383;29;20444;-82
2022/03/31 08:10:17;;;;;;;1.25;0.73;;;-3.00;99.90;;;;;;4932197;29;20494;-82
2022/03/31 08:12:46;;;;;;;1.13;0.60;;;-3.00;99.90;;;;;;4916377;29;20528;-81
2022/03/31 08:15:17;;;;;;;1.58;0.68;;;-3.00;99.90;;;;;;4923740;29;20399;-82
2022/03/31 08:17:49;;;;;;;1.52;0.50;;;-3.00;99.90;;;;;;4914045;29;20407;-81
2022/03/31 08:20:17;;;;;;;2.22;0.80;;;-2.80;99.90;;;;;;4927446;29;21031;-81
2022/03/31 08:22:46;;;;;;;3.38;0.80;;;-2.90;99.90;;;;;;4930165;29;20410;-81
2022/03/31 08:25:15;;;;;;;0.80;0.52;;;-2.80;99.90;;;;;;4932869;29;20497;-81
2022/03/31 08:27:44;;;;;;;1.80;0.70;;;-2.70;99.90;;;;;;4933180;29;20401;-81
2022/03/31 08:30:16;;;;;;;2.10;0.60;;;-2.60;99.90;;;;;;4931190;29;20408;-81
2022/03/31 08:32:46;;;;;;;1.02;0.60;;;-2.50;99.90;;;;;;4923538;29;20399;-81
2022/03/31 08:35:16;;;;;;;1.27;0.43;;;-2.40;99.90;;;;;;4917867;29;20487;-81
2022/03/31 08:37:44;;;;;;;0.93;0.57;;;-2.30;99.90;;;;;;4947241;29;20906;-83
2022/03/31 08:40:13;;;;;;;1.60;0.60;;;-2.00;99.90;;;;;;4936688;29;20409;-82
2022/03/31 08:42:41;;;;;;;2.42;0.70;;;-2.20;99.90;;;;;;4936805;29;20952;-83
2022/03/31 08:45:14;;;;;;;1.25;0.60;;;-2.00;99.90;;;;;;4920987;29;20460;-81
2022/03/31 08:47:44;;;;;;;1.08;0.60;;;-1.90;99.90;;;;;;4936961;29;20889;-82
2022/03/31 08:50:18;;;;;;;0.98;0.60;;;-1.90;99.90;;;;;;4924530;29;20411;-80
2022/03/31 08:52:46;;;;;;;1.08;0.57;;;-1.90;99.90;;;;;;4950644;29;20922;-81
2022/03/31 08:55:14;;;;;;;2.00;0.60;;;-1.90;99.90;;;;;;4936345;29;20427;-82
2022/03/31 08:57:44;;;;;;;1.10;0.60;;;-1.90;99.90;;;;;;4920794;29;20420;-82
2022/03/31 09:00:14;;;;;;;2.55;0.70;;;-1.80;99.90;;;;;;4936452;29;20754;-82
2022/03/31 09:03:03;;;;;;;1.70;0.60;;;-1.80;99.90;;;;;;4920472;29;20480;-82
2022/03/31 09:05:42;;;;;;;0.85;0.50;;;-1.40;99.90;;;;;;4911846;29;20423;-81
2022/03/31 09:08:11;;;;;;;2.58;0.60;;;-1.40;99.90;;;;;;4941870;29;20914;-82
2022/03/31 09:10:44;;;;;;;0.82;0.60;;;-1.30;99.90;;;;;;4937478;29;20396;-81
2022/03/31 09:13:29;;;;;;;0.77;0.55;;;-1.20;99.90;;;;;;4952132;29;20406;-82
2022/03/31 09:16:03;;;;;;;1.52;0.70;;;-1.20;99.90;;;;;;4936288;29;20881;-82
2022/03/31 09:18:32;;;;;;;1.17;0.55;;;-1.10;99.90;;;;;;4936017;29;20760;-82
2022/03/31 09:21:02;;;;;;;1.90;0.65;;;-1.10;99.90;;;;;;4935991;29;20487;-82
2022/03/31 09:23:42;;;;;;;1.52;0.60;;;-1.00;99.90;;;;;;4920505;29;20465;-82
2022/03/31 09:26:15;;;;;;;2.00;0.70;;;-1.00;99.90;;;;;;4937191;29;20748;-82
2022/03/31 09:28:45;;;;;;;1.20;0.50;;;-1.00;99.90;;;;;;4937032;29;20482;-82
2022/03/31 09:31:13;;;;;;;0.85;0.60;;;-1.10;99.90;;;;;;4937106;29;20470;-82
2022/03/31 09:33:48;;;;;;;1.17;0.70;;;-1.10;99.90;;;;;;4929219;29;20410;-82
2022/03/31 09:36:21;;;;;;;2.03;0.60;;;-1.10;99.90;;;;;;4929628;29;20394;-82
2022/03/31 09:38:58;;;;;;;1.58;0.63;;;-0.90;99.90;;;;;;4937005;29;20401;-82
2022/03/31 09:41:28;;;;;;;1.23;0.60;;;-0.90;99.90;;;;;;4936901;29;20405;-82
2022/03/31 09:43:58;;;;;;;2.78;0.63;;;-0.90;99.90;;;;;;4935398;29;20440;-83
2022/03/31 09:46:35;;;;;;;0.90;0.50;;;-0.80;99.90;;;;;;4934677;29;20393;-82
2022/03/31 09:49:12;;;;;;;1.30;0.50;;;-0.80;99.90;;;;;;4935607;29;20587;-82
2022/03/31 09:51:41;;;;;;;0.98;0.52;;;-0.70;99.90;;;;;;4936753;29;20393;-82
2022/03/31 09:54:09;;;;;;;1.70;0.63;;;-0.50;99.90;;;;;;4936734;29;20565;-82
2022/03/31 09:56:40;;;;;;;1.73;0.63;;;-0.60;99.90;;;;;;4934621;29;20433;-82
2022/03/31 09:59:13;;;;;;;1.50;0.60;;;-0.60;99.90;;;;;;4935829;29;20756;-82
2022/03/31 10:01:51;;;;;;;0.57;0.47;;;-0.50;99.90;;;;;;4935178;29;20825;-82
2022/03/31 10:04:20;;;;;;;1.42;0.55;;;-0.80;99.90;;;;;;4935014;29;20410;-84
2022/03/31 10:06:55;;;;;;;1.40;0.70;;;-0.90;99.90;;;;;;4935291;29;20449;-82
2022/03/31 10:09:23;;;;;;;1.50;0.70;;;-0.90;99.90;;;;;;4919458;29;20394;-84
2022/03/31 10:12:07;;;;;;;2.05;0.70;;;-0.80;99.90;;;;;;4936439;29;20397;-84
2022/03/31 10:14:46;;;;;;;0.85;0.52;;;-0.80;99.90;;;;;;4936329;29;20881;-84
2022/03/31 10:17:15;;;;;;;0.75;0.50;;;-0.70;99.90;;;;;;4951027;29;20887;-82
2022/03/31 10:19:44;;;;;;;2.10;0.60;;;-0.70;99.90;;;;;;4933032;29;20488;-83
2022/03/31 10:25:17;;;;;;;1.63;0.40;;;-0.70;99.90;;;;;;4908064;29;20827;-84
2022/03/31 10:27:45;;;;;;;0.82;0.55;;;-0.80;99.90;;;;;;4917063;29;20639;-83
2022/03/31 10:30:23;;;;;;;1.48;0.52;;;-0.70;99.90;;;;;;4915872;29;20417;-84
2022/03/31 10:33:02;;;;;;;2.17;0.67;;;-0.70;99.90;;;;;;4931608;29;20432;-84
2022/03/31 10:35:32;;;;;;;1.02;0.47;;;-0.70;99.90;;;;;;4917022;29;20430;-84
2022/03/31 10:38:16;;;;;;;1.95;0.68;;;-0.50;99.90;;;;;;4915664;29;20811;-81
2022/03/31 10:40:52;;;;;;;1.90;0.50;;;-0.30;99.90;;;;;;4916802;29;20806;-81
2022/03/31 10:43:21;;;;;;;1.70;0.70;;;-0.10;99.90;;;;;;4932195;29;20421;-82
2022/03/31 10:45:50;;;;;;;1.65;0.60;;;-0.10;99.90;;;;;;4934441;29;20421;-82
2022/03/31 10:48:20;;;;;;;0.88;0.57;;;-0.10;99.90;;;;;;4934462;29;20401;-82
2022/03/31 10:51:07;;;;;;;3.17;1.50;;;-0.20;99.90;;;;;;4934888;29;20459;-82
2022/03/31 10:53:39;;;;;;;1.45;0.80;;;-0.20;99.90;;;;;;4916019;29;20494;-82
2022/03/31 10:56:36;;;;;;;1.20;0.60;;;-0.20;99.90;;;;;;4915362;29;20930;-82
2022/03/31 10:59:06;;;;;;;1.53;0.70;;;-0.20;99.90;;;;;;4907512;29;20432;-82
2022/03/31 11:01:41;;;;;;;1.92;0.70;;;-0.30;99.90;;;;;;4916431;29;20404;-82
2022/03/31 11:04:11;;;;;;;2.25;0.70;;;-0.30;99.90;;;;;;4916332;29;20463;-82
2022/03/31 11:06:51;;;;;;;1.52;0.80;;;-0.30;99.90;;;;;;4915114;29;20407;-84
2022/03/31 11:09:23;;;;;;;2.00;0.90;;;-0.40;99.90;;;;;;4931060;29;20408;-82
2022/03/31 11:11:51;;;;;;;1.73;0.90;;;-0.40;99.90;;;;;;4916248;29;20399;-82
2022/03/31 11:14:19;;;;;;;2.20;1.00;;;-0.40;99.90;;;;;;4916322;29;20421;-83
2022/03/31 11:16:50;;;;;;;1.90;0.80;;;-0.40;99.90;;;;;;4916273;29;20395;-82
2022/03/31 11:19:20;;;;;;;1.48;0.70;;;-0.50;99.90;;;;;;4899659;29;20410;-84
2022/03/31 11:21:48;;;;;;;1.50;0.73;;;-0.50;99.90;;;;;;4916474;29;20410;-82
2022/03/31 11:24:23;;;;;;;1.20;0.80;;;-0.50;99.90;;;;;;4915980;29;20413;-82
2022/03/31 11:26:54;;;;;;;2.33;0.70;;;-0.50;99.90;;;;;;4915091;29;20412;-82
2022/03/31 11:29:24;;;;;;;0.97;0.80;;;-0.40;99.90;;;;;;4899414;29;20422;-83
2022/03/31 11:31:54;;;;;;;1.25;0.60;;;-0.40;99.90;;;;;;4914805;29;20404;-83
2022/03/31 11:34:25;;;;;;;1.50;0.68;;;-0.40;99.90;;;;;;4916057;29;20396;-82
2022/03/31 11:36:54;;;;;;;1.60;0.90;;;-0.20;99.90;;;;;;4930845;29;20454;-82
2022/03/31 11:39:30;;;;;;;1.55;0.82;;;-0.30;99.90;;;;;;4914846;29;20491;-82
2022/03/31 11:42:00;;;;;;;1.15;0.80;;;-0.30;99.90;;;;;;4915974;29;20479;-83
2022/03/31 11:44:32;;;;;;;1.80;0.70;;;-0.30;99.90;;;;;;4898989;29;20427;-83
2022/03/31 11:47:00;;;;;;;1.60;0.70;;;-0.30;99.90;;;;;;4915900;29;20392;-83
2022/03/31 11:49:28;;;;;;;1.23;0.63;;;-0.20;99.90;;;;;;4914966;29;20494;-82
2022/03/31 11:52:00;;;;;;;1.15;0.60;;;-0.20;99.90;;;;;;4930374;29;20395;-82
2022/03/31 11:54:30;;;;;;;1.10;0.55;;;-0.20;99.90;;;;;;4930211;29;20408;-82
2022/03/31 11:57:09;;;;;;;1.00;0.73;;;-0.20;99.90;;;;;;4930257;29;20982;-84
2022/03/31 11:59:37;;;;;;;1.30;0.60;;;-0.20;99.90;;;;;;4914491;29;20508;-83
2022/03/31 12:02:16;;;;;;;1.30;0.85;;;-0.20;99.90;;;;;;4931552;29;20394;-83
2022/03/31 12:04:46;;;;;;;2.17;0.80;;;-0.20;99.90;;;;;;4933629;29;20509;-82
2022/03/31 12:07:16;;;;;;;1.20;0.63;;;-0.20;99.90;;;;;;4933501;29;20809;-82
2022/03/31 12:09:44;;;;;;;1.00;0.70;;;-0.10;99.90;;;;;;4917196;29;20418;-82
2022/03/31 12:12:13;;;;;;;2.00;0.63;;;-0.10;99.90;;;;;;4917562;29;20434;-83
2022/03/31 12:14:57;;;;;;;0.80;0.60;;;-0.10;99.90;;;;;;4934653;29;20502;-83
2022/03/31 12:17:25;;;;;;;1.00;0.50;;;-0.10;99.90;;;;;;4934395;29;20817;-83
2022/03/31 12:19:53;;;;;;;2.03;0.70;;;-0.10;99.90;;;;;;4949071;29;20402;-82
2022/03/31 12:22:31;;;;;;;1.33;0.70;;;-0.10;99.90;;;;;;4949086;29;20416;-83
2022/03/31 12:24:59;;;;;;;1.17;0.52;;;-0.10;99.90;;;;;;4933147;29;20481;-82
2022/03/31 12:27:27;;;;;;;1.97;0.80;;;-0.10;99.90;;;;;;4934425;29;20394;-82
2022/03/31 12:30:00;;;;;;;0.80;0.50;;;-0.10;99.90;;;;;;4934305;29;20402;-83
2022/03/31 12:32:33;;;;;;;2.05;0.65;;;-0.10;99.90;;;;;;4929413;29;20999;-82
2022/03/31 12:35:02;;;;;;;1.10;0.60;;;-0.20;99.90;;;;;;4914137;29;20903;-83
2022/03/31 12:37:38;;;;;;;1.98;0.68;;;-0.20;99.90;;;;;;4915285;29;20428;-83
2022/03/31 12:40:07;;;;;;;1.42;0.60;;;-0.20;99.90;;;;;;4929648;29;20403;-82
2022/03/31 12:42:36;;;;;;;0.90;0.55;;;-0.20;99.90;;;;;;4915231;29;20487;-82
2022/03/31 12:45:14;;;;;;;2.30;0.70;;;0.10;99.90;;;;;;4915586;29;20442;-82
2022/03/31 12:47:43;;;;;;;1.08;0.60;;;0.30;99.90;;;;;;4915191;29;20423;-82
2022/03/31 12:50:20;;;;;;;0.80;0.60;;;0.70;99.90;;;;;;4929745;29;20406;-81
2022/03/31 12:52:59;;;;;;;0.60;0.50;;;0.90;99.90;;;;;;4929661;29;20829;-81
2022/03/31 12:55:46;;;;;;;1.70;0.50;;;1.40;99.90;;;;;;4929667;29;20567;-81
2022/03/31 12:58:13;;;;;;;2.40;0.60;;;1.50;99.90;;;;;;4915134;29;20914;-82
2022/03/31 13:00:52;;;;;;;0.90;0.50;;;1.40;99.90;;;;;;4913800;29;20471;-83
2022/03/31 13:03:20;;;;;;;1.40;0.50;;;1.10;99.90;;;;;;4929316;29;20408;-82
2022/03/31 13:05:48;;;;;;;1.63;0.60;;;1.00;99.90;;;;;;4914983;29;20419;-82
2022/03/31 13:08:18;;;;;;;1.30;0.70;;;1.00;99.90;;;;;;4914992;29;20410;-82